createdAt,value
2019-02-07T00:00:52.889Z,68.67
2019-02-07T00:03:22.331Z,64.27
2019-02-07T00:05:51.857Z,65.70
2019-02-07T00:08:21.761Z,66.22
2019-02-07T00:10:51.211Z,67.17
2019-02-07T00:13:20.601Z,61.28
2019-02-07T00:15:50.914Z,61.50
2019-02-07T00:18:20.225Z,56.95
2019-02-07T00:20:49.543Z,60.80
2019-02-07T00:23:19.378Z,58.87
2019-02-07T00:25:48.797Z,62.10
2019-02-07T00:28:18.351Z,56.13
2019-02-07T00:30:50.560Z,57.87
2019-02-07T00:33:19.887Z,53.42
2019-02-07T00:35:49.222Z,59.77
2019-02-07T00:38:18.615Z,58.02
2019-02-07T00:40:48.209Z,61.57
2019-02-07T00:43:17.576Z,59.65
2019-02-07T00:45:47.051Z,59.15
2019-02-07T00:48:16.469Z,59.30
2019-02-07T00:50:46.363Z,56.37
2019-02-07T00:53:15.856Z,63.78
2019-02-07T00:55:45.429Z,60.17
2019-02-07T00:58:14.727Z,63.85
2019-02-07T01:00:44.136Z,65.20
2019-02-07T01:03:13.601Z,59.10
2019-02-07T01:06:02.868Z,51.83
2019-02-07T01:08:32.222Z,61.88
2019-02-07T01:11:01.569Z,57.50
2019-02-07T01:13:31.518Z,60.08
2019-02-07T01:16:01.611Z,54.90
2019-02-07T01:18:31.019Z,64.50
2019-02-07T01:21:00.563Z,60.63
2019-02-07T01:23:29.997Z,57.35
2019-02-07T01:25:59.454Z,56.83
2019-02-07T01:28:28.960Z,63.08
2019-02-07T01:30:58.823Z,63.13
2019-02-07T01:33:28.186Z,69.97
2019-02-07T01:35:57.603Z,75.83
2019-02-07T01:38:27.032Z,81.90
2019-02-07T01:40:56.468Z,77.87
2019-02-07T01:43:27.912Z,77.37
2019-02-07T01:45:57.726Z,83.07
2019-02-07T01:48:28.026Z,83.05
2019-02-07T01:50:57.425Z,88.23
2019-02-07T01:53:26.876Z,91.20
2019-02-07T01:55:56.311Z,90.92
2019-02-07T01:58:25.799Z,87.92
2019-02-07T02:00:55.627Z,83.47
2019-02-07T02:03:25.021Z,81.08
2019-02-07T02:05:54.498Z,84.83
2019-02-07T02:08:23.861Z,89.00
2019-02-07T02:10:53.304Z,86.90
2019-02-07T02:13:22.716Z,88.22
2019-02-07T02:15:52.593Z,92.60
2019-02-07T02:18:21.975Z,93.95
2019-02-07T02:20:51.476Z,97.33
2019-02-07T02:23:20.925Z,101.07
2019-02-07T02:25:50.356Z,96.67
2019-02-07T02:28:19.847Z,98.37
2019-02-07T02:30:49.281Z,101.37
2019-02-07T02:33:18.640Z,99.70
2019-02-07T02:35:48.155Z,107.35
2019-02-07T02:38:17.524Z,104.95
2019-02-07T02:40:46.882Z,102.83
2019-02-07T02:43:16.303Z,110.30
2019-02-07T02:45:45.862Z,113.50
2019-02-07T02:48:15.293Z,109.03
2019-02-07T02:50:44.699Z,114.00
2019-02-07T02:53:14.078Z,113.22
2019-02-07T02:55:43.902Z,110.32
2019-02-07T02:58:13.297Z,120.53
2019-02-07T03:00:44.695Z,119.17
2019-02-07T03:03:18.755Z,110.83
2019-02-07T03:05:49.810Z,98.33
2019-02-07T03:08:37.003Z,105.43
2019-02-07T03:11:26.475Z,106.23
2019-02-07T03:14:12.399Z,108.75
2019-02-07T03:16:50.036Z,105.32
2019-02-07T03:19:30.672Z,105.50
2019-02-07T03:22:01.647Z,97.87
2019-02-07T03:24:51.096Z,101.40
2019-02-07T03:27:31.064Z,99.13
2019-02-07T03:30:19.475Z,109.30
2019-02-07T03:32:59.718Z,101.40
2019-02-07T03:35:30.766Z,94.97
2019-02-07T03:38:10.554Z,97.67
2019-02-07T03:40:50.638Z,100.70
2019-02-07T03:43:21.650Z,91.70
2019-02-07T03:46:05.115Z,98.33
2019-02-07T03:48:47.949Z,97.22
2019-02-07T03:51:24.804Z,87.20
2019-02-07T03:53:55.854Z,95.77
2019-02-07T03:56:41.947Z,95.32
2019-02-07T03:59:19.647Z,94.22
2019-02-07T04:02:07.175Z,92.70
2019-02-07T04:04:41.124Z,96.30
2019-02-07T04:07:18.810Z,91.97
2019-02-07T04:10:04.966Z,94.70
2019-02-07T04:12:36.088Z,96.87
2019-02-07T04:15:33.847Z,94.75
2019-02-07T04:18:10.846Z,96.72
2019-02-07T04:20:48.029Z,97.15
2019-02-07T04:23:19.813Z,98.52
2019-02-07T04:26:07.322Z,89.25
2019-02-07T04:28:38.348Z,90.97
2019-02-07T04:31:15.492Z,95.83
2019-02-07T04:34:02.908Z,96.12
2019-02-07T04:36:36.365Z,88.07
2019-02-07T04:39:12.564Z,93.80
2019-02-07T04:42:00.197Z,87.00
2019-02-07T04:44:37.175Z,95.03
2019-02-07T04:47:20.140Z,85.83
2019-02-07T04:49:53.872Z,86.15
2019-02-07T04:52:36.338Z,89.40
2019-02-07T04:55:25.946Z,82.80
2019-02-07T04:58:08.791Z,83.33
2019-02-07T05:00:51.865Z,81.75
2019-02-07T05:03:39.005Z,79.58
2019-02-07T05:06:16.085Z,83.70
2019-02-07T05:09:03.388Z,83.55
2019-02-07T05:11:34.405Z,78.20
2019-02-07T05:14:05.464Z,75.17
2019-02-07T05:16:39.865Z,87.25
2019-02-07T05:19:12.016Z,82.62
2019-02-07T05:21:52.108Z,82.33
2019-02-07T05:24:26.269Z,79.40
2019-02-07T05:27:00.258Z,82.53
2019-02-07T05:29:47.148Z,79.85
2019-02-07T05:32:36.233Z,84.27
2019-02-07T05:35:27.725Z,77.75
2019-02-07T05:38:15.483Z,74.90
2019-02-07T05:40:46.432Z,73.73
2019-02-07T05:43:33.966Z,72.95
2019-02-07T05:46:04.921Z,74.03
2019-02-07T05:48:35.858Z,72.62
2019-02-07T05:51:12.982Z,78.23
2019-02-07T05:53:44.205Z,71.12
2019-02-07T05:56:15.139Z,78.80
2019-02-07T05:59:04.594Z,75.67
2019-02-07T06:01:50.913Z,71.40
2019-02-07T06:04:25.379Z,74.32
2019-02-07T06:07:02.011Z,73.62
2019-02-07T06:09:49.026Z,67.27
2019-02-07T06:12:28.764Z,73.73
2019-02-07T06:15:08.585Z,78.55
2019-02-07T06:17:42.549Z,70.85
2019-02-07T06:20:30.128Z,72.78
2019-02-07T06:23:17.108Z,70.50
2019-02-07T06:25:53.976Z,71.42
2019-02-07T06:28:30.871Z,71.67
2019-02-07T06:31:01.891Z,69.03
2019-02-07T06:33:32.765Z,72.90
2019-02-07T06:36:03.656Z,75.28
2019-02-07T06:38:51.029Z,72.90
2019-02-07T06:41:30.092Z,67.43
2019-02-07T06:44:07.186Z,70.45
2019-02-07T06:46:37.295Z,67.37
2019-02-07T06:49:10.441Z,68.30
2019-02-07T06:54:38.021Z,69.47
2019-02-07T06:57:08.614Z,66.28
2019-02-07T06:59:44.894Z,67.10
2019-02-07T07:02:31.113Z,64.80
2019-02-07T07:05:06.802Z,69.53
2019-02-07T07:07:40.089Z,64.07
2019-02-07T07:10:19.160Z,65.20
2019-02-07T07:12:55.078Z,63.17
2019-02-07T07:15:27.874Z,54.13
2019-02-07T07:18:00.523Z,58.50
2019-02-07T07:20:30.642Z,60.03
2019-02-07T07:23:04.184Z,53.13
2019-02-07T07:25:42.996Z,52.40
2019-02-07T07:28:29.521Z,52.87
2019-02-07T07:30:59.762Z,54.07
2019-02-07T07:33:36.076Z,52.23
2019-02-07T07:36:18.662Z,59.97
2019-02-07T07:38:48.780Z,55.70
2019-02-07T07:41:24.963Z,50.13
2019-02-07T07:43:58.269Z,58.23
2019-02-07T07:46:44.674Z,56.37
2019-02-07T07:49:20.489Z,56.23
2019-02-07T07:51:50.687Z,56.60
2019-02-07T07:54:37.271Z,56.70
2019-02-07T07:57:23.686Z,53.20
2019-02-07T08:00:12.340Z,47.43
2019-02-07T08:02:42.581Z,49.57
2019-02-07T08:05:15.563Z,48.67
2019-02-07T08:08:03.901Z,48.20
2019-02-07T08:10:43.248Z,39.60
2019-02-07T08:13:13.483Z,41.07
2019-02-07T08:15:43.686Z,41.27
2019-02-07T08:18:16.516Z,37.83
2019-02-07T08:20:47.077Z,41.30
2019-02-07T08:23:33.191Z,39.87
2019-02-07T08:26:16.205Z,40.37
2019-02-07T08:28:46.310Z,42.90
2019-02-07T08:31:32.424Z,40.70
2019-02-07T08:34:14.617Z,38.97
2019-02-07T08:37:02.083Z,45.00
2019-02-07T08:39:47.616Z,45.70
2019-02-07T08:42:20.464Z,42.93
2019-02-07T08:44:55.109Z,40.70
2019-02-07T08:47:41.239Z,39.80
2019-02-07T08:50:16.271Z,40.93
2019-02-07T08:52:46.425Z,45.03
2019-02-07T08:55:16.930Z,42.73
2019-02-07T08:58:05.146Z,42.70
2019-02-07T09:00:50.225Z,35.77
2019-02-07T09:03:29.617Z,39.67
2019-02-07T09:06:02.937Z,34.93
2019-02-07T09:08:42.162Z,33.23
2019-02-07T09:11:18.281Z,33.78
2019-02-07T09:13:57.354Z,30.00
2019-02-07T09:16:33.594Z,33.27
2019-02-07T09:19:03.704Z,33.57
2019-02-07T09:21:34.393Z,31.40
2019-02-07T09:24:04.624Z,30.03
2019-02-07T09:26:44.539Z,29.87
2019-02-07T09:29:30.934Z,33.43
2019-02-07T09:32:07.303Z,28.60
2019-02-07T09:34:37.765Z,29.87
2019-02-07T09:37:07.875Z,31.67
2019-02-07T09:39:40.590Z,28.00
2019-02-07T09:42:11.940Z,30.47
2019-02-07T09:44:54.264Z,32.57
2019-02-07T09:47:27.081Z,32.40
2019-02-07T09:49:59.702Z,33.87
2019-02-07T09:52:39.149Z,41.87
2019-02-07T09:55:14.646Z,39.47
2019-02-07T09:57:44.835Z,35.77
2019-02-07T10:00:22.841Z,34.30
2019-02-07T10:02:54.095Z,31.20
2019-02-07T10:05:33.084Z,27.27
2019-02-07T10:08:08.755Z,29.27
2019-02-07T10:10:41.698Z,25.13
2019-02-07T10:13:11.940Z,27.67
2019-02-07T10:15:48.041Z,27.67
2019-02-07T10:18:34.217Z,29.50
2019-02-07T10:21:20.273Z,27.53
2019-02-07T10:23:50.396Z,25.17
2019-02-07T10:26:32.223Z,29.27
2019-02-07T10:29:08.959Z,25.93
2019-02-07T10:31:45.541Z,25.73
2019-02-07T10:34:27.611Z,29.27
2019-02-07T10:36:57.909Z,25.93
2019-02-07T10:39:28.077Z,31.10
2019-02-07T10:42:01.652Z,27.23
2019-02-07T10:44:32.068Z,26.17
2019-02-07T10:47:02.310Z,27.23
2019-02-07T10:49:32.416Z,26.47
2019-02-07T10:52:19.553Z,23.70
2019-02-07T10:54:49.755Z,23.53
2019-02-07T10:57:25.950Z,22.47
2019-02-07T10:59:59.799Z,21.90
2019-02-07T11:02:42.348Z,21.70
2019-02-07T11:05:16.915Z,21.30
2019-02-07T11:07:49.897Z,20.60
2019-02-07T11:10:36.266Z,21.60
2019-02-07T11:13:25.068Z,18.37
2019-02-07T11:15:58.137Z,21.67
2019-02-07T11:18:55.284Z,20.20
2019-02-07T11:21:17.509Z,17.70
2019-02-07T11:23:47.681Z,21.23
2019-02-07T11:26:17.908Z,20.80
2019-02-07T11:28:56.544Z,18.87
2019-02-07T11:31:29.347Z,25.73
2019-02-07T11:34:11.893Z,22.93
2019-02-07T11:36:53.813Z,21.23
2019-02-07T11:39:22.470Z,21.40
2019-02-07T11:41:58.460Z,20.43
2019-02-07T11:44:38.810Z,24.23
2019-02-07T11:47:15.716Z,23.53
2019-02-07T11:49:52.145Z,23.67
2019-02-07T11:52:40.331Z,24.83
2019-02-07T11:55:26.749Z,22.20
2019-02-07T11:58:06.673Z,23.50
2019-02-07T12:00:54.058Z,23.10
2019-02-07T12:03:36.351Z,20.10
2019-02-07T12:06:22.890Z,21.20
2019-02-07T12:09:10.573Z,21.97
2019-02-07T12:11:56.046Z,19.83
2019-02-07T12:14:32.168Z,20.03
2019-02-07T12:17:09.323Z,20.67
2019-02-07T12:19:45.462Z,18.80
2019-02-07T12:22:32.043Z,23.63
2019-02-07T12:25:08.245Z,22.67
2019-02-07T12:27:38.417Z,23.97
2019-02-07T12:30:11.625Z,21.17
2019-02-07T12:32:41.997Z,21.63
2019-02-07T12:35:15.150Z,22.87
2019-02-07T12:38:01.669Z,25.00
2019-02-07T12:40:40.906Z,23.67
2019-02-07T12:43:13.844Z,24.00
2019-02-07T12:45:43.947Z,23.27
2019-02-07T12:48:20.096Z,22.63
2019-02-07T12:51:08.350Z,24.60
2019-02-07T12:53:44.580Z,25.93
2019-02-07T12:56:32.479Z,23.23
2019-02-07T12:59:19.225Z,22.47
2019-02-07T13:01:55.089Z,22.57
2019-02-07T13:04:37.622Z,24.90
2019-02-07T13:07:24.436Z,23.47
2019-02-07T13:10:01.063Z,24.87
2019-02-07T13:12:36.899Z,21.70
2019-02-07T13:15:25.891Z,20.93
2019-02-07T13:17:59.206Z,22.37
2019-02-07T13:20:37.992Z,25.80
2019-02-07T13:23:10.893Z,27.47
2019-02-07T13:25:40.973Z,29.47
2019-02-07T13:28:14.695Z,28.13
2019-02-07T13:31:03.958Z,27.93
2019-02-07T13:33:50.555Z,23.67
2019-02-07T13:36:23.724Z,24.07
2019-02-07T13:39:09.177Z,25.50
2019-02-07T13:41:41.748Z,23.07
2019-02-07T13:44:19.307Z,25.43
2019-02-07T13:47:05.731Z,19.70
2019-02-07T13:49:52.118Z,26.70
2019-02-07T13:52:22.105Z,38.37
2019-02-07T13:55:07.733Z,28.77
2019-02-07T13:57:37.831Z,18.67
2019-02-07T14:00:10.993Z,22.93
2019-02-07T14:02:41.224Z,21.13
2019-02-07T14:05:20.655Z,19.97
2019-02-07T14:07:50.960Z,20.27
2019-02-07T14:10:22.158Z,22.70
2019-02-07T14:12:54.995Z,21.40
2019-02-07T14:15:30.863Z,24.13
2019-02-07T14:18:10.290Z,30.27
2019-02-07T14:20:56.699Z,26.77
2019-02-07T14:23:29.831Z,27.97
2019-02-07T14:25:59.734Z,26.70
2019-02-07T14:28:29.906Z,27.30
2019-02-07T14:31:00.079Z,31.70
2019-02-07T14:33:32.911Z,35.30
2019-02-07T14:36:08.876Z,33.97
2019-02-07T14:41:31.991Z,33.37
2019-02-07T14:44:02.363Z,34.53
2019-02-07T14:46:38.193Z,39.30
2019-02-07T14:49:06.718Z,33.40
2019-02-07T14:51:35.179Z,34.77
2019-02-07T14:54:03.779Z,27.13
2019-02-07T14:56:32.550Z,26.60
2019-02-07T14:59:01.513Z,34.20
2019-02-07T15:01:30.213Z,28.20
2019-02-07T15:03:59.820Z,27.00
2019-02-07T15:06:28.456Z,28.53
2019-02-07T15:08:56.978Z,27.97
2019-02-07T15:11:25.700Z,33.70
2019-02-07T15:13:54.278Z,30.40
2019-02-07T15:16:23.770Z,29.03
2019-02-07T15:18:52.296Z,35.90
2019-02-07T15:21:20.814Z,42.73
2019-02-07T15:23:49.273Z,32.27
2019-02-07T15:26:17.800Z,29.10
2019-02-07T15:28:46.677Z,37.37
2019-02-07T15:31:15.278Z,33.83
2019-02-07T15:33:43.748Z,35.50
2019-02-07T15:36:13.440Z,29.97
2019-02-07T15:38:42.177Z,29.33
2019-02-07T15:41:10.972Z,29.77
2019-02-07T15:43:40.714Z,31.70
2019-02-07T15:46:11.200Z,31.13
2019-02-07T15:48:39.674Z,31.30
2019-02-07T15:51:09.417Z,27.53
2019-02-07T15:53:38.026Z,34.83
2019-02-07T15:56:07.259Z,28.83
2019-02-07T15:58:41.834Z,32.57
2019-02-07T16:01:15.161Z,33.10
2019-02-07T16:03:48.864Z,37.23
2019-02-07T16:06:18.049Z,37.20
2019-02-07T16:08:47.322Z,37.03
2019-02-07T16:11:16.922Z,35.27
2019-02-07T16:13:46.178Z,43.27
2019-02-07T16:16:15.477Z,36.80
2019-02-07T16:18:44.843Z,32.27
2019-02-07T16:21:14.197Z,37.10
2019-02-07T16:23:43.466Z,36.63
2019-02-07T16:26:13.073Z,38.40
2019-02-07T16:28:42.450Z,38.53
2019-02-07T16:31:11.750Z,37.10
2019-02-07T16:33:41.052Z,42.27
2019-02-07T16:36:10.806Z,42.30
2019-02-07T16:38:40.103Z,42.27
2019-02-07T16:41:10.644Z,46.60
2019-02-07T16:43:40.284Z,41.00
2019-02-07T16:46:09.605Z,42.23
2019-02-07T16:48:38.880Z,47.07
2019-02-07T16:51:08.250Z,42.87
2019-02-07T16:53:37.535Z,40.40
2019-02-07T16:56:07.040Z,42.57
2019-02-07T16:58:36.301Z,37.17
2019-02-07T17:01:07.235Z,45.13
2019-02-07T17:03:36.604Z,45.13
2019-02-07T17:06:06.208Z,47.03
2019-02-07T17:08:35.566Z,41.33
2019-02-07T17:11:05.951Z,41.00
2019-02-07T17:13:37.536Z,43.83
2019-02-07T17:16:07.412Z,45.60
2019-02-07T17:18:36.778Z,44.43
2019-02-07T17:21:12.074Z,45.80
2019-02-07T17:23:37.363Z,52.87
2019-02-07T17:26:06.838Z,49.87
2019-02-07T17:28:36.224Z,48.40
2019-02-07T17:31:05.806Z,50.23
2019-02-07T17:33:35.043Z,50.33
2019-02-07T17:36:04.462Z,54.33
2019-02-07T17:38:34.456Z,53.37
2019-02-07T17:41:04.031Z,53.73
2019-02-07T17:43:33.378Z,57.63
2019-02-07T17:46:02.889Z,66.17
2019-02-07T17:48:32.190Z,58.33
2019-02-07T17:51:01.492Z,59.47
2019-02-07T17:53:31.037Z,54.50
2019-02-07T17:56:00.414Z,53.30
2019-02-07T17:58:29.717Z,54.40
2019-02-07T18:01:06.060Z,49.37
2019-02-07T18:03:35.453Z,44.17
2019-02-07T18:06:05.683Z,53.00
2019-02-07T18:08:35.320Z,48.80
2019-02-07T18:11:05.319Z,50.33
2019-02-07T18:13:34.984Z,52.33
2019-02-07T18:16:08.046Z,49.40
2019-02-07T18:18:37.358Z,38.97
2019-02-07T18:21:06.878Z,31.93
2019-02-07T18:23:36.202Z,32.93
2019-02-07T18:26:05.803Z,33.43
2019-02-07T18:28:35.111Z,35.67
2019-02-07T18:31:04.601Z,40.30
2019-02-07T18:33:33.859Z,42.87
2019-02-07T18:36:03.292Z,38.33
2019-02-07T18:38:32.609Z,37.83
2019-02-07T18:41:01.939Z,43.43
2019-02-07T18:43:31.597Z,48.10
2019-02-07T18:46:00.943Z,51.07
2019-02-07T18:48:30.298Z,50.13
2019-02-07T18:50:59.666Z,53.23
2019-02-07T18:53:29.086Z,61.70
2019-02-07T18:55:58.522Z,75.73
2019-02-07T18:58:27.862Z,72.83
2019-02-07T19:00:57.113Z,68.20
2019-02-07T19:03:26.402Z,57.43
2019-02-07T19:05:55.744Z,49.70
2019-02-07T19:08:25.183Z,46.93
2019-02-07T19:10:54.711Z,45.97
2019-02-07T19:13:24.082Z,44.87
2019-02-07T19:15:56.913Z,47.77
2019-02-07T19:18:26.160Z,58.93
2019-02-07T19:20:55.618Z,61.07
2019-02-07T19:23:26.177Z,58.57
2019-02-07T19:25:55.503Z,57.63
2019-02-07T19:28:24.888Z,40.17
2019-02-07T19:30:54.131Z,30.97
2019-02-07T19:33:23.478Z,29.10
2019-02-07T19:35:52.880Z,27.07
2019-02-07T19:38:22.497Z,24.93
2019-02-07T19:40:51.816Z,27.30
2019-02-07T19:43:21.194Z,34.40
2019-02-07T19:45:50.439Z,35.43
2019-02-07T19:48:19.727Z,33.40
2019-02-07T19:50:49.176Z,34.27
2019-02-07T19:53:18.716Z,33.13
2019-02-07T19:55:48.001Z,37.77
2019-02-07T19:58:17.279Z,36.53
2019-02-07T20:00:46.516Z,34.27
2019-02-07T20:03:15.795Z,36.67
2019-02-07T20:05:45.425Z,38.57
2019-02-07T20:08:15.034Z,37.57
2019-02-07T20:10:44.450Z,37.70
2019-02-07T20:13:13.739Z,43.13
2019-02-07T20:15:44.201Z,39.47
2019-02-07T20:18:14.617Z,36.87
2019-02-07T20:20:43.874Z,40.37
2019-02-07T20:23:13.270Z,39.57
2019-02-07T20:25:42.725Z,42.13
2019-02-07T20:28:11.981Z,39.67
2019-02-07T20:30:43.645Z,36.87
2019-02-07T20:33:13.100Z,38.50
2019-02-07T20:35:42.458Z,31.87
2019-02-07T20:38:12.041Z,31.77
2019-02-07T20:40:41.814Z,30.53
2019-02-07T20:43:11.126Z,31.37
2019-02-07T20:45:40.510Z,29.47
2019-02-07T20:48:09.947Z,36.00
2019-02-07T20:50:39.179Z,41.83
2019-02-07T20:53:10.575Z,40.80
2019-02-07T20:55:39.894Z,37.20
2019-02-07T20:58:09.478Z,33.80
2019-02-07T21:00:39.844Z,35.67
2019-02-07T21:03:10.157Z,34.20
2019-02-07T21:05:39.445Z,34.43
2019-02-07T21:08:08.666Z,32.03
2019-02-07T21:10:39.075Z,29.90
2019-02-07T21:13:08.983Z,31.57
2019-02-07T21:15:38.293Z,35.87
2019-02-07T21:18:07.822Z,33.13
2019-02-07T21:20:37.038Z,35.60
2019-02-07T21:23:06.933Z,40.30
2019-02-07T21:25:42.013Z,45.20
2019-02-07T21:28:11.712Z,45.63
2019-02-07T21:30:41.133Z,42.05
2019-02-07T21:33:10.481Z,39.90
2019-02-07T21:35:39.941Z,37.87
2019-02-07T21:38:09.394Z,40.07
2019-02-07T21:40:38.752Z,42.30
2019-02-07T21:43:08.208Z,41.97
2019-02-07T21:45:37.519Z,45.50
2019-02-07T21:48:09.794Z,47.33
2019-02-07T21:50:39.066Z,62.90
2019-02-07T21:53:08.281Z,61.70
2019-02-07T21:55:38.588Z,57.63
2019-02-07T21:58:09.158Z,50.33
2019-02-07T22:00:43.967Z,53.40
2019-02-07T22:03:14.159Z,54.77
2019-02-07T22:05:44.428Z,47.33
2019-02-07T22:08:13.805Z,50.50
2019-02-07T22:10:43.149Z,44.93
2019-02-07T22:13:12.808Z,45.80
2019-02-07T22:15:42.122Z,43.67
2019-02-07T22:18:11.680Z,45.80
2019-02-07T22:20:40.957Z,46.63
2019-02-07T22:23:10.158Z,47.13
2019-02-07T22:25:41.222Z,47.80
2019-02-07T22:28:11.437Z,47.43
2019-02-07T22:30:40.805Z,49.23
2019-02-07T22:33:10.096Z,50.43
2019-02-07T22:35:39.436Z,53.03
2019-02-07T22:38:09.176Z,47.90
2019-02-07T22:40:38.623Z,53.30
2019-02-07T22:43:08.216Z,54.67
2019-02-07T22:45:37.489Z,58.87
2019-02-07T22:48:07.079Z,53.73
2019-02-07T22:50:36.344Z,55.17
2019-02-07T22:53:05.880Z,52.07
2019-02-07T22:55:35.223Z,54.20
2019-02-07T22:58:06.286Z,57.87
2019-02-07T23:00:42.055Z,52.03
2019-02-07T23:03:19.299Z,54.37
2019-02-07T23:05:48.479Z,53.17
2019-02-07T23:08:18.771Z,53.33
2019-02-07T23:10:48.315Z,56.93
2019-02-07T23:13:17.691Z,54.73
2019-02-07T23:15:46.943Z,72.37
2019-02-07T23:18:16.246Z,78.37
2019-02-07T23:20:45.444Z,99.70
2019-02-07T23:23:14.774Z,92.83
2019-02-07T23:25:44.408Z,81.17
2019-02-07T23:28:13.653Z,80.00
2019-02-07T23:30:42.857Z,91.70
2019-02-07T23:33:12.335Z,103.23
2019-02-07T23:35:41.506Z,92.70
2019-02-07T23:38:10.692Z,86.97
2019-02-07T23:40:40.309Z,103.47
2019-02-07T23:43:10.098Z,107.37
2019-02-07T23:45:39.371Z,115.43
2019-02-07T23:48:08.750Z,95.97
2019-02-07T23:50:37.909Z,82.17
2019-02-07T23:53:14.436Z,81.93
2019-02-07T23:55:38.828Z,68.07
2019-02-07T23:58:07.287Z,70.87
